Time;durP1;ratioP1;P1;durP2;ratioP2;P2;SDS_P1;SDS_P2;PMS_P1;PMS_P2;Temp;Humidity;BMP_temperature;BMP_pressure;BME280_temperature;BME280_humidity;BME280_pressure;Samples;Min_cycle;Max_cycle;Signal;HPM_P1;HPM_P2
2021/09/01 00:18:44;;;;;;;;;26.50;23.75;;;;;-147.91;100.00;58652.34;5052955;22;46863;-82
2021/09/01 00:22:11;;;;;;;;;15.00;10.50;;;;;-147.91;100.00;58652.34;4966683;28;46888;-81
2021/09/01 00:30:48;;;;;;;;;30.25;24.00;;;;;-147.91;100.00;58652.34;4904441;28;46985;-82
2021/09/01 00:37:08;;;;;;;;;25.25;23.00;;;;;-147.91;100.00;58652.34;4874698;28;45674;-82
2021/09/01 00:39:46;;;;;;;;;;;;;;;;;;;;;
2021/09/01 00:43:08;;;;;;;;;;;;;;;;;;;;;
2021/09/01 00:52:02;;;;;;;;;34.50;27.25;;;;;-147.91;100.00;58652.34;4848897;29;45791;-82
2021/09/01 00:59:06;;;;;;;;;;;;;;;;;;;;;
2021/09/01 01:08:50;;;;;;;;;26.50;24.75;;;;;-147.91;100.00;58652.34;4793494;29;46818;-83
2021/09/01 01:25:14;;;;;;;;;25.25;22.75;;;;;-147.91;100.00;58652.34;4844010;29;45743;-83
2021/09/01 01:27:43;;;;;;;;;24.00;22.25;;;;;-147.91;100.00;58652.34;4847732;29;45445;-82
2021/09/01 01:30:24;;;;;;;;;22.50;18.75;;;;;-147.91;100.00;58652.34;4842740;29;47320;-81
2021/09/01 01:33:01;;;;;;;;;26.50;23.00;;;;;-147.91;100.00;58652.34;4872004;28;46291;-82
2021/09/01 01:35:51;;;;;;;;;34.25;27.50;;;;;-147.91;100.00;58652.34;4911829;28;45346;-82
2021/09/01 01:38:34;;;;;;;;;24.75;20.50;;;;;-147.91;100.00;58652.34;4940033;28;45502;-81
2021/09/01 01:41:36;;;;;;;;;25.50;21.50;;;;;-147.91;100.00;58652.34;4947104;28;45450;-82
2021/09/01 01:45:18;;;;;;;;;23.75;19.75;;;;;-147.91;100.00;58652.34;4938208;28;46718;-82
2021/09/01 01:47:53;;;;;;;;;24.00;20.50;;;;;-147.91;100.00;58652.34;4936393;28;50721;-83
2021/09/01 01:50:59;;;;;;;;;25.75;21.75;;;;;-147.91;100.00;58652.34;4928173;28;46748;-82
2021/09/01 01:57:03;;;;;;;;;29.75;22.75;;;;;-147.91;100.00;58652.34;4915760;28;45588;-82
2021/09/01 02:07:15;;;;;;;;;30.25;23.00;;;;;-147.91;100.00;58652.34;4874399;28;45668;-83
2021/09/01 02:11:00;;;;;;;;;34.00;24.75;;;;;-147.91;100.00;58652.34;4854450;28;45796;-81
2021/09/01 02:14:20;;;;;;;;;25.75;22.00;;;;;-147.91;100.00;58652.34;4851912;29;45407;-82
2021/09/01 02:16:48;;;;;;;;;22.25;20.75;;;;;-147.91;100.00;58652.34;4781727;29;45975;-82
2021/09/01 02:20:02;;;;;;;;;27.00;21.25;;;;;-147.91;100.00;58652.34;4786295;29;45887;-82
2021/09/01 02:22:41;;;;;;;;;23.50;22.75;;;;;-147.91;100.00;58652.34;4774291;29;45788;-83
2021/09/01 02:25:47;;;;;;;;;28.00;23.50;;;;;-147.91;100.00;58652.34;4774830;29;47225;-82
2021/09/01 02:29:29;;;;;;;;;31.50;27.50;;;;;-147.91;100.00;58652.34;4792436;29;45642;-82
2021/09/01 02:32:02;;;;;;;;;26.75;20.25;;;;;-147.91;100.00;58652.34;4791546;29;45538;-82
2021/09/01 02:35:04;;;;;;;;;;;;;;;;;;;;;
2021/09/01 02:37:24;;;;;;;;;31.50;23.75;;;;;-147.91;100.00;58652.34;4783322;29;46715;-81
2021/09/01 02:40:20;;;;;;;;;30.50;26.00;;;;;-147.91;100.00;58652.34;4798067;29;45576;-82
2021/09/01 02:54:25;;;;;;;;;30.50;26.75;;;;;-147.91;100.00;58652.34;4758378;29;45529;-83
2021/09/01 02:56:50;;;;;;;;;39.75;30.25;;;;;-147.91;100.00;58652.34;4757722;29;47225;-82
2021/09/01 02:59:40;;;;;;;;;40.00;31.25;;;;;-147.91;100.00;58652.34;4783386;29;47737;-83
2021/09/01 03:02:39;;;;;;;;;39.00;32.50;;;;;-147.91;100.00;58652.34;4783241;29;45894;-82
2021/09/01 03:05:08;;;;;;;;;37.75;30.50;;;;;-147.91;100.00;58652.34;4785372;29;45695;-82
2021/09/01 03:11:08;;;;;;;;;48.25;33.00;;;;;-147.91;100.00;58652.34;4771870;29;45946;-82
2021/09/01 03:14:09;;;;;;;;;48.75;35.00;;;;;-147.91;100.00;58652.34;4778845;29;45651;-83
2021/09/01 03:20:25;;;;;;;;;47.25;35.75;;;;;-147.91;100.00;58652.34;4799374;29;45965;-83
2021/09/01 03:26:39;;;;;;;;;44.00;36.00;;;;;-147.91;100.00;58652.34;4800740;29;45470;-82
2021/09/01 03:29:18;;;;;;;;;46.25;33.25;;;;;-147.91;100.00;58652.34;4797030;29;45389;-82
2021/09/01 03:31:47;;;;;;;;;48.75;34.50;;;;;-147.91;100.00;58652.34;4915535;28;47392;-82
2021/09/01 03:34:12;;;;;;;;;38.50;32.50;;;;;-147.91;100.00;58652.34;4944182;28;45663;-82
2021/09/01 03:40:26;;;;;;;;;39.50;32.50;;;;;-147.91;100.00;58652.34;4942283;28;45629;-85
2021/09/01 03:43:10;;;;;;;;;;;;;;;;;;;;;
2021/09/01 03:45:42;;;;;;;;;43.50;32.50;;;;;-147.91;100.00;58652.34;4951328;28;75465;-82
2021/09/01 03:49:31;;;;;;;;;36.25;31.50;;;;;-147.91;100.00;58652.34;4940937;28;46108;-82
2021/09/01 03:55:43;;;;;;;;;41.25;35.00;;;;;-147.91;100.00;58652.34;4917745;28;45461;-81
2021/09/01 03:59:19;;;;;;;;;42.50;33.25;;;;;-147.91;100.00;58652.34;4881422;28;47284;-82
2021/09/01 04:09:11;;;;;;;;;40.00;31.00;;;;;-147.91;100.00;58652.34;4774656;29;46198;-82
2021/09/01 04:12:07;;;;;;;;;38.75;30.25;;;;;-147.91;100.00;58652.34;4785903;29;48049;-82
2021/09/01 04:14:35;;;;;;;;;34.50;31.25;;;;;-147.91;100.00;58652.34;4790715;29;45787;-81
2021/09/01 04:17:40;;;;;;;;;39.25;32.00;;;;;-147.91;100.00;58652.34;4787742;29;46000;-82
2021/09/01 04:20:19;;;;;;;;;33.25;28.00;;;;;-147.91;100.00;58652.34;4798807;29;45623;-82
2021/09/01 04:25:55;;;;;;;;;37.25;24.75;;;;;-147.91;100.00;58652.34;4778323;29;45594;-82
2021/09/01 04:28:27;;;;;;;;;29.00;23.75;;;;;-147.91;100.00;58652.34;4771799;29;46695;-82
2021/09/01 04:31:19;;;;;;;;;28.50;24.25;;;;;-147.91;100.00;58652.34;4777857;29;45831;-81
2021/09/01 04:33:48;;;;;;;;;25.00;21.25;;;;;-147.91;100.00;58652.34;4765545;29;47829;-82
2021/09/01 04:36:13;;;;;;;;;28.75;23.50;;;;;-147.91;100.00;58652.34;4771816;29;45927;-81
2021/09/01 04:39:03;;;;;;;;;24.75;18.25;;;;;-147.91;100.00;58652.34;4789476;29;45786;-81
2021/09/01 04:41:29;;;;;;;;;27.75;24.50;;;;;-147.91;100.00;58652.34;4818999;29;45587;-82
2021/09/01 04:44:09;;;;;;;;;30.25;24.75;;;;;-147.91;100.00;58652.34;4877602;28;48134;-82
2021/09/01 04:46:35;;;;;;;;;26.50;20.75;;;;;-147.91;100.00;58652.34;4895167;28;45649;-82
2021/09/01 04:49:01;;;;;;;;;24.25;21.75;;;;;-147.91;100.00;58652.34;4887400;28;45478;-82
2021/09/01 04:51:27;;;;;;;;;26.25;24.00;;;;;-147.91;100.00;58652.34;4885708;28;45727;-81
2021/09/01 04:53:52;;;;;;;;;27.25;25.75;;;;;-147.91;100.00;58652.34;4895660;28;46157;-82
2021/09/01 04:56:18;;;;;;;;;25.50;22.50;;;;;-147.91;100.00;58652.34;4876665;28;45918;-82
2021/09/01 04:58:44;;;;;;;;;28.50;21.50;;;;;-147.91;100.00;58652.34;4895968;28;45537;-82
2021/09/01 05:01:10;;;;;;;;;27.75;21.50;;;;;-147.91;100.00;58652.34;4875878;28;45548;-82
2021/09/01 05:03:40;;;;;;;;;22.75;18.75;;;;;-147.91;100.00;58652.34;4944363;28;45627;-83
2021/09/01 05:06:18;;;;;;;;;26.00;21.75;;;;;-147.91;100.00;58652.34;4944006;28;51463;-82
2021/09/01 05:08:57;;;;;;;;;;;;;;;;;;;;;
2021/09/01 05:14:55;;;;;;;;;22.25;19.50;;;;;-147.91;100.00;58652.34;4996819;28;45989;-82
2021/09/01 05:17:20;;;;;;;;;29.00;22.25;;;;;-147.91;100.00;58652.34;5002164;28;45533;-82
2021/09/01 05:19:49;;;;;;;;;35.25;24.50;;;;;-147.91;100.00;58652.34;5010410;28;45549;-83
2021/09/01 05:22:18;;;;;;;;;25.75;24.50;;;;;-147.91;100.00;58652.34;5015917;28;45623;-82
2021/09/01 05:25:12;;;;;;;;;30.00;20.00;;;;;-147.91;100.00;58652.34;5013057;28;50656;-81
2021/09/01 05:27:41;;;;;;;;;24.50;22.75;;;;;-147.91;100.00;58652.34;5025670;28;45525;-83
2021/09/01 05:30:12;;;;;;;;;23.00;20.75;;;;;-147.91;100.00;58652.34;5027182;28;46171;-85
2021/09/01 05:32:39;;;;;;;;;26.75;21.50;;;;;-147.91;100.00;58652.34;5033341;28;46569;-84
2021/09/01 05:35:06;;;;;;;;;24.50;22.75;;;;;-147.91;100.00;58652.34;5033688;28;45502;-84
2021/09/01 05:37:32;;;;;;;;;23.25;20.75;;;;;-147.91;100.00;58652.34;5036642;28;46552;-85
2021/09/01 05:39:59;;;;;;;;;20.75;17.00;;;;;-147.91;100.00;58652.34;5035866;28;45456;-83
2021/09/01 05:42:28;;;;;;;;;36.75;26.75;;;;;-147.91;100.00;58652.34;5042178;28;45530;-83
2021/09/01 05:44:55;;;;;;;;;32.00;25.75;;;;;-147.91;100.00;58652.34;5040266;28;45701;-85
2021/09/01 05:47:21;;;;;;;;;26.50;25.00;;;;;-147.91;100.00;58652.34;5022596;28;45792;-84
2021/09/01 05:49:49;;;;;;;;;30.50;23.50;;;;;-147.91;100.00;58652.34;5030372;28;45585;-83
2021/09/01 05:52:16;;;;;;;;;36.25;31.75;;;;;-147.91;100.00;58652.34;5082934;22;49073;-93
2021/09/01 05:54:43;;;;;;;;;41.00;32.00;;;;;-147.91;100.00;58652.34;5075154;27;47997;-94
2021/09/01 05:57:14;;;;;;;;;37.50;29.50;;;;;-147.91;100.00;58652.34;5096232;27;45274;-93
2021/09/01 06:00:01;;;;;;;;;31.25;26.00;;;;;-147.91;100.00;58652.34;5087528;27;45638;-96
2021/09/01 06:02:42;;;;;;;;;38.50;32.25;;;;;-147.91;100.00;58652.34;5212743;22;45543;-85
2021/09/01 06:05:10;;;;;;;;;41.25;31.75;;;;;-147.91;100.00;58652.34;5054365;27;45989;-83
2021/09/01 06:07:43;;;;;;;;;34.75;32.25;;;;;-147.91;100.00;58652.34;5057842;28;45688;-86
2021/09/01 06:10:17;;;;;;;;;47.25;34.75;;;;;-147.91;100.00;58652.34;5057666;28;45855;-85
2021/09/01 06:13:00;;;;;;;;;38.00;31.25;;;;;-147.91;100.00;58652.34;5059418;27;45561;-85
2021/09/01 06:15:42;;;;;;;;;45.25;31.00;;;;;-147.91;100.00;58652.34;5059465;28;46383;-85
2021/09/01 06:18:08;;;;;;;;;34.75;30.00;;;;;-147.91;100.00;58652.34;5055989;28;45921;-86
2021/09/01 06:20:37;;;;;;;;;30.25;24.25;;;;;-147.91;100.00;58652.34;5030666;27;49039;-86
2021/09/01 06:23:03;;;;;;;;;36.50;26.75;;;;;-147.91;100.00;58652.34;5059066;28;45656;-87
2021/09/01 06:28:56;;;;;;;;;30.50;23.25;;;;;-147.91;100.00;58652.34;4947089;28;45938;-86
2021/09/01 06:31:21;;;;;;;;;25.75;19.75;;;;;-147.91;100.00;58652.34;4945768;28;46706;-86
2021/09/01 06:33:50;;;;;;;;;21.25;20.00;;;;;-147.91;100.00;58652.34;4943923;28;45697;-87
2021/09/01 06:36:15;;;;;;;;;26.75;21.00;;;;;-147.91;100.00;58652.34;5014629;22;47011;-96
2021/09/01 06:38:40;;;;;;;;;24.75;20.75;;;;;-147.91;100.00;58652.34;5071887;27;45509;-93
2021/09/01 06:41:06;;;;;;;;;25.75;21.00;;;;;-147.91;100.00;58652.34;5087387;27;45345;-94
2021/09/01 06:43:31;;;;;;;;;27.25;20.75;;;;;-147.91;100.00;58652.34;5079840;27;45386;-94
2021/09/01 06:45:56;;;;;;;;;27.50;21.25;;;;;-147.91;100.00;58652.34;5097672;27;46428;-95
2021/09/01 06:56:48;;;;;;;;;29.00;23.50;;;;;-147.91;100.00;58652.34;5037089;22;45767;-88
2021/09/01 06:59:14;;;;;;;;;34.50;27.50;;;;;-147.91;100.00;58652.34;5034967;28;45746;-83
2021/09/01 07:01:39;;;;;;;;;36.50;31.00;;;;;-147.91;100.00;58652.34;5036962;28;45580;-84
2021/09/01 07:04:04;;;;;;;;;27.00;22.50;;;;;-147.91;100.00;58652.34;5034511;28;45581;-83
2021/09/01 07:06:30;;;;;;;;;36.75;31.75;;;;;-147.91;100.00;58652.34;5036877;28;46320;-84
2021/09/01 07:08:55;;;;;;;;;37.75;29.00;;;;;-147.91;100.00;58652.34;5031656;28;45523;-85
2021/09/01 07:11:21;;;;;;;;;39.00;31.75;;;;;-147.91;100.00;58652.34;5037103;28;45866;-85
2021/09/01 07:13:46;;;;;;;;;36.75;27.75;;;;;-147.91;100.00;58652.34;5032968;28;45705;-82
2021/09/01 07:16:12;;;;;;;;;40.00;31.00;;;;;-147.91;100.00;58652.34;5013496;28;46483;-82
2021/09/01 07:18:38;;;;;;;;;46.25;34.00;;;;;-147.91;100.00;58652.34;5034345;28;45850;-82
2021/09/01 07:21:04;;;;;;;;;35.00;28.00;;;;;-147.91;100.00;58652.34;5053404;27;46023;-85
2021/09/01 07:23:29;;;;;;;;;38.25;30.00;;;;;-147.91;100.00;58652.34;5020347;28;45642;-84
2021/09/01 07:25:55;;;;;;;;;35.25;30.25;;;;;-147.91;100.00;58652.34;5049123;28;46562;-81
2021/09/01 07:28:20;;;;;;;;;37.50;31.00;;;;;-147.91;100.00;58652.34;5042276;28;45427;-81
2021/09/01 07:30:45;;;;;;;;;42.50;30.75;;;;;-147.91;100.00;58652.34;5047378;28;45579;-81
2021/09/01 07:33:11;;;;;;;;;39.00;31.00;;;;;-147.91;100.00;58652.34;5046153;28;45628;-82
2021/09/01 07:36:01;;;;;;;;;43.50;31.00;;;;;-147.91;100.00;58652.34;5024703;28;47068;-83
2021/09/01 07:38:27;;;;;;;;;40.50;32.25;;;;;-147.91;100.00;58652.34;5034168;28;45568;-81
2021/09/01 07:40:52;;;;;;;;;37.00;31.00;;;;;-147.91;100.00;58652.34;5034249;28;45526;-81
2021/09/01 07:43:21;;;;;;;;;35.00;30.50;;;;;-147.91;100.00;58652.34;5033883;28;45746;-80
2021/09/01 07:45:47;;;;;;;;;27.50;25.50;;;;;-147.91;100.00;58652.34;5033759;28;46587;-81
2021/09/01 07:48:15;;;;;;;;;34.00;28.25;;;;;-147.91;100.00;58652.34;5035828;28;45935;-79
2021/09/01 07:50:42;;;;;;;;;25.75;22.50;;;;;-147.91;100.00;58652.34;5029873;28;45632;-80
2021/09/01 07:53:09;;;;;;;;;27.25;23.25;;;;;-147.91;100.00;58652.34;5037749;28;45880;-81
2021/09/01 07:55:34;;;;;;;;;28.00;21.00;;;;;-147.91;100.00;58652.34;5041388;28;46098;-80
2021/09/01 07:58:00;;;;;;;;;23.00;20.50;;;;;-147.91;100.00;58652.34;5038555;28;45510;-80
2021/09/01 08:00:25;;;;;;;;;22.75;21.00;;;;;-147.91;100.00;58652.34;5035349;28;45736;-82
2021/09/01 08:02:51;;;;;;;;;24.50;21.00;;;;;-147.91;100.00;58652.34;5012625;28;45668;-79
2021/09/01 08:05:17;;;;;;;;;22.25;18.00;;;;;-147.91;100.00;58652.34;5022655;28;47975;-80
2021/09/01 08:07:42;;;;;;;;;25.75;21.50;;;;;-147.91;100.00;58652.34;5034806;28;51988;-80
2021/09/01 08:10:08;;;;;;;;;24.25;17.25;;;;;-147.91;100.00;58652.34;5034870;28;45806;-81
2021/09/01 08:12:33;;;;;;;;;21.00;20.50;;;;;-147.91;100.00;58652.34;5032924;28;45524;-80
2021/09/01 08:14:59;;;;;;;;;18.00;15.25;;;;;-147.91;100.00;58652.34;5032602;28;45544;-80
2021/09/01 08:17:24;;;;;;;;;19.50;17.00;;;;;-147.91;100.00;58652.34;5013265;28;45434;-80
2021/09/01 08:19:50;;;;;;;;;19.00;17.00;;;;;-147.91;100.00;58652.34;5040491;28;45819;-80
2021/09/01 08:22:15;;;;;;;;;26.50;17.50;;;;;-147.91;100.00;58652.34;5031244;28;45685;-80
2021/09/01 08:24:41;;;;;;;;;20.25;19.00;;;;;-147.91;100.00;58652.34;5034247;28;46844;-80
2021/09/01 08:27:08;;;;;;;;;22.50;21.50;;;;;-147.91;100.00;58652.34;5034159;28;45495;-80
2021/09/01 08:29:35;;;;;;;;;24.00;17.00;;;;;-147.91;100.00;58652.34;5030335;28;50903;-80
2021/09/01 08:32:01;;;;;;;;;18.50;16.25;;;;;-147.91;100.00;58652.34;5018464;28;45501;-80
2021/09/01 08:34:26;;;;;;;;;31.00;24.75;;;;;-147.91;100.00;58652.34;5032273;28;46014;-81
2021/09/01 08:36:52;;;;;;;;;30.25;23.50;;;;;-147.91;100.00;58652.34;5032838;28;45680;-81
2021/09/01 08:39:17;;;;;;;;;23.50;20.00;;;;;-147.91;100.00;58652.34;5040918;28;45763;-81
2021/09/01 08:41:45;;;;;;;;;24.00;18.25;;;;;-147.91;100.00;58652.34;5028294;28;45572;-81
2021/09/01 08:44:11;;;;;;;;;26.50;19.00;;;;;-147.91;100.00;58652.34;5035239;28;53336;-80
2021/09/01 08:46:38;;;;;;;;;20.25;16.25;;;;;-147.91;100.00;58652.34;5032890;28;45602;-81
2021/09/01 08:49:04;;;;;;;;;21.00;18.50;;;;;-147.91;100.00;58652.34;5028783;28;45749;-80
2021/09/01 08:51:31;;;;;;;;;25.00;21.75;;;;;-147.91;100.00;58652.34;5039172;28;45479;-81
2021/09/01 08:53:58;;;;;;;;;20.25;17.25;;;;;-147.91;100.00;58652.34;5031517;28;46377;-81
2021/09/01 08:56:25;;;;;;;;;19.50;16.75;;;;;-147.91;100.00;58652.34;5026171;28;45521;-80
2021/09/01 08:58:50;;;;;;;;;20.50;17.00;;;;;-147.91;100.00;58652.34;5031557;28;45642;-80
2021/09/01 09:01:39;;;;;;;;;21.50;19.00;;;;;-147.91;100.00;58652.34;5048989;27;45637;-80
2021/09/01 09:04:05;;;;;;;;;22.50;19.25;;;;;-147.91;100.00;58652.34;5023320;28;45973;-81
2021/09/01 09:06:47;;;;;;;;;20.50;19.25;;;;;-147.91;100.00;58652.34;5028133;28;45525;-81
2021/09/01 09:09:15;;;;;;;;;21.50;18.25;;;;;-147.91;100.00;58652.34;5035951;28;45581;-80
2021/09/01 09:11:40;;;;;;;;;26.00;20.50;;;;;-147.91;100.00;58652.34;5027767;28;45423;-80
2021/09/01 09:14:21;;;;;;;;;19.75;18.00;;;;;-147.91;100.00;58652.34;5035329;28;46426;-80
2021/09/01 09:16:58;;;;;;;;;22.75;20.00;;;;;-147.91;100.00;58652.34;5046455;27;45621;-81
2021/09/01 09:19:43;;;;;;;;;26.25;19.00;;;;;-147.91;100.00;58652.34;5030866;28;54248;-81
2021/09/01 09:22:08;;;;;;;;;21.50;18.00;;;;;-147.91;100.00;58652.34;5035308;28;45493;-81
2021/09/01 09:24:34;;;;;;;;;22.00;17.50;;;;;-147.91;100.00;58652.34;5039673;28;45756;-80
2021/09/01 09:26:59;;;;;;;;;20.75;19.75;;;;;-147.91;100.00;58652.34;5032007;28;45998;-81
2021/09/01 09:29:30;;;;;;;;;19.50;16.00;;;;;-147.91;100.00;58652.34;5029485;28;50509;-81
2021/09/01 09:32:05;;;;;;;;;19.00;16.50;;;;;-147.91;100.00;58652.34;5032163;28;50637;-81
2021/09/01 09:34:43;;;;;;;;;21.00;17.50;;;;;-147.91;100.00;58652.34;5048897;27;50752;-81
2021/09/01 09:37:13;;;;;;;;;22.50;18.75;;;;;-147.91;100.00;58652.34;5032353;28;52574;-81
2021/09/01 09:39:48;;;;;;;;;19.50;16.50;;;;;-147.91;100.00;58652.34;5011106;28;45079;-81
2021/09/01 09:42:33;;;;;;;;;25.50;19.25;;;;;-147.91;100.00;58652.34;5028751;28;45530;-81
2021/09/01 09:44:59;;;;;;;;;18.50;16.00;;;;;-147.91;100.00;58652.34;5029010;28;46443;-80
2021/09/01 09:47:48;;;;;;;;;23.75;17.75;;;;;-147.91;100.00;58652.34;5025984;28;48127;-81
2021/09/01 09:50:14;;;;;;;;;22.00;18.00;;;;;-147.91;100.00;58652.34;5031088;28;45431;-81
2021/09/01 09:52:39;;;;;;;;;17.25;16.50;;;;;-147.91;100.00;58652.34;5028987;28;45308;-82
2021/09/01 09:55:19;;;;;;;;;21.00;16.00;;;;;-147.91;100.00;58652.34;5029776;28;45626;-82
2021/09/01 09:57:53;;;;;;;;;18.25;16.25;;;;;-147.91;100.00;58652.34;5028843;28;53504;-81
2021/09/01 10:00:20;;;;;;;;;20.00;18.75;;;;;-147.91;100.00;58652.34;5030938;28;45697;-81
2021/09/01 10:02:46;;;;;;;;;21.00;18.00;;;;;-147.91;100.00;58652.34;5025846;28;45617;-82
2021/09/01 10:05:12;;;;;;;;;22.75;19.75;;;;;-147.91;100.00;58652.34;5032789;28;46511;-81
2021/09/01 10:07:38;;;;;;;;;21.75;19.75;;;;;-147.91;100.00;58652.34;5034012;28;45729;-79
2021/09/01 10:10:04;;;;;;;;;19.50;15.50;;;;;-147.91;100.00;58652.34;5022138;28;45530;-80
2021/09/01 10:12:29;;;;;;;;;25.25;19.25;;;;;-147.91;100.00;58652.34;5031681;28;45680;-80
2021/09/01 10:14:59;;;;;;;;;24.75;19.00;;;;;-147.91;100.00;58652.34;5028899;28;46421;-80
2021/09/01 10:17:25;;;;;;;;;21.00;18.25;;;;;-147.91;100.00;58652.34;5027533;28;45580;-81
2021/09/01 10:19:54;;;;;;;;;24.50;19.25;;;;;-147.91;100.00;58652.34;5028916;28;45686;-79
2021/09/01 10:22:20;;;;;;;;;20.50;17.25;;;;;-147.91;100.00;58652.34;5028201;28;45584;-80
2021/09/01 10:24:48;;;;;;;;;18.50;16.50;;;;;-147.91;100.00;58652.34;5037013;28;46530;-80
2021/09/01 10:27:28;;;;;;;;;20.50;17.00;;;;;-147.91;100.00;58652.34;5031444;28;45612;-82
2021/09/01 10:30:05;;;;;;;;;17.50;17.50;;;;;-147.91;100.00;58652.34;5031810;28;45831;-83
2021/09/01 10:32:32;;;;;;;;;20.50;18.00;;;;;-147.91;100.00;58652.34;5046464;28;45888;-82
2021/09/01 10:35:12;;;;;;;;;19.50;18.50;;;;;-147.91;100.00;58652.34;5048909;28;46087;-82
2021/09/01 10:38:05;;;;;;;;;17.25;16.00;;;;;-147.91;100.00;58652.34;5040739;28;45622;-81
2021/09/01 10:40:31;;;;;;;;;20.75;17.75;;;;;-147.91;100.00;58652.34;5018419;28;45615;-81
2021/09/01 10:42:58;;;;;;;;;19.25;18.25;;;;;-147.91;100.00;58652.34;5045089;28;45429;-82
2021/09/01 10:45:34;;;;;;;;;21.25;17.25;;;;;-147.91;100.00;58652.34;5021226;28;47263;-83
2021/09/01 10:48:02;;;;;;;;;16.25;15.50;;;;;-147.91;100.00;58652.34;5034908;28;46684;-84
2021/09/01 10:50:33;;;;;;;;;20.00;18.75;;;;;-147.91;100.00;58652.34;5037448;28;50865;-84
2021/09/01 10:53:11;;;;;;;;;13.75;13.75;;;;;-147.91;100.00;58652.34;5020556;28;45628;-84
2021/09/01 10:55:47;;;;;;;;;15.25;14.25;;;;;-147.91;100.00;58652.34;5017448;28;45550;-82
2021/09/01 10:58:14;;;;;;;;;21.75;16.50;;;;;-147.91;100.00;58652.34;5039691;28;46516;-84
2021/09/01 11:00:42;;;;;;;;;19.50;16.00;;;;;-147.91;100.00;58652.34;5040198;28;45646;-83
2021/09/01 11:03:08;;;;;;;;;18.25;16.50;;;;;-147.91;100.00;58652.34;5039610;28;45648;-83
2021/09/01 11:05:34;;;;;;;;;19.25;18.00;;;;;-147.91;100.00;58652.34;5050625;22;47178;-93
2021/09/01 11:07:59;;;;;;;;;17.00;15.00;;;;;-147.91;100.00;58652.34;5057156;28;45795;-95
2021/09/01 11:10:29;;;;;;;;;21.75;17.75;;;;;-147.91;100.00;58652.34;5050855;28;45414;-95
2021/09/01 11:13:01;;;;;;;;;14.75;14.50;;;;;-147.91;100.00;58652.34;5046714;28;45273;-96
2021/09/01 11:15:42;;;;;;;;;21.25;17.00;;;;;-147.91;100.00;58652.34;5057080;28;45752;-94
2021/09/01 11:18:08;;;;;;;;;19.25;16.75;;;;;-147.91;100.00;58652.34;5066907;22;45496;-81
2021/09/01 11:20:35;;;;;;;;;15.75;14.00;;;;;-147.91;100.00;58652.34;5051612;27;45558;-82
2021/09/01 11:23:02;;;;;;;;;20.00;15.00;;;;;-147.91;100.00;58652.34;5057789;27;45604;-84
2021/09/01 11:25:29;;;;;;;;;17.00;13.75;;;;;-147.91;100.00;58652.34;5058511;27;48083;-82
2021/09/01 11:27:57;;;;;;;;;19.25;15.50;;;;;-147.91;100.00;58652.34;5057783;27;45621;-82
2021/09/01 11:30:29;;;;;;;;;19.50;18.75;;;;;-147.91;100.00;58652.34;5054861;27;46063;-83
2021/09/01 11:32:55;;;;;;;;;15.50;14.00;;;;;-147.91;100.00;58652.34;5049335;27;45757;-82
2021/09/01 11:36:22;;;;;;;;;18.00;16.00;;;;;-147.91;100.00;58652.34;5054732;27;47304;-84
2021/09/01 11:38:48;;;;;;;;;14.75;13.00;;;;;-147.91;100.00;58652.34;4964942;28;45656;-83
2021/09/01 11:41:13;;;;;;;;;16.50;14.75;;;;;-147.91;100.00;58652.34;4979590;28;45526;-83
2021/09/01 11:43:40;;;;;;;;;18.50;13.75;;;;;-147.91;100.00;58652.34;4968499;28;45664;-83
2021/09/01 11:46:05;;;;;;;;;14.75;12.00;;;;;-147.91;100.00;58652.34;4967870;28;46490;-84
2021/09/01 11:48:43;;;;;;;;;17.50;14.50;;;;;-147.91;100.00;58652.34;4971740;28;47436;-85
2021/09/01 11:56:20;;;;;;;;;15.00;13.00;;;;;-147.91;100.00;58652.34;5300284;22;45379;-92
2021/09/01 11:58:59;;;;;;;;;20.75;17.00;;;;;-147.91;100.00;58652.34;5075754;27;45429;-95
2021/09/01 12:01:26;;;;;;;;;14.00;12.75;;;;;-147.91;100.00;58652.34;5076069;27;45613;-95
2021/09/01 12:03:52;;;;;;;;;14.25;13.00;;;;;-147.91;100.00;58652.34;5080156;22;45301;-81
2021/09/01 12:06:18;;;;;;;;;14.25;13.00;;;;;-147.91;100.00;58652.34;5023692;27;46318;-82
2021/09/01 12:08:45;;;;;;;;;12.25;12.00;;;;;-147.91;100.00;58652.34;5018790;28;47246;-82
2021/09/01 12:11:14;;;;;;;;;16.75;13.25;;;;;-147.91;100.00;58652.34;5024277;28;45848;-83
2021/09/01 12:13:41;;;;;;;;;14.75;14.75;;;;;-147.91;100.00;58652.34;5013718;28;45633;-83
2021/09/01 12:16:08;;;;;;;;;12.50;11.00;;;;;-147.91;100.00;58652.34;5023807;28;46192;-83
2021/09/01 12:18:54;;;;;;;;;11.50;10.25;;;;;-147.91;100.00;58652.34;5012289;28;45539;-82
2021/09/01 12:21:21;;;;;;;;;12.50;11.50;;;;;-147.91;100.00;58652.34;5012560;28;45510;-82
2021/09/01 12:24:18;;;;;;;;;15.25;13.75;;;;;-147.91;100.00;58652.34;5022240;28;47286;-82
2021/09/01 12:26:49;;;;;;;;;13.25;12.25;;;;;-147.91;100.00;58652.34;5010928;28;45594;-83
2021/09/01 12:29:33;;;;;;;;;12.00;12.00;;;;;-147.91;100.00;58652.34;5020388;28;46072;-83
2021/09/01 12:32:00;;;;;;;;;15.00;14.00;;;;;-147.91;100.00;58652.34;5021203;28;45657;-82
2021/09/01 12:34:36;;;;;;;;;16.25;12.50;;;;;-147.91;100.00;58652.34;5012155;28;47339;-83
2021/09/01 12:37:15;;;;;;;;;14.75;13.00;;;;;-147.91;100.00;58652.34;5012856;28;45828;-85
2021/09/01 12:39:45;;;;;;;;;15.25;13.25;;;;;-147.91;100.00;58652.34;5010256;28;46187;-82
2021/09/01 12:42:25;;;;;;;;;12.75;11.50;;;;;-147.91;100.00;58652.34;5014459;28;45771;-83
2021/09/01 12:44:54;;;;;;;;;14.75;11.00;;;;;-147.91;100.00;58652.34;5020670;28;45521;-83
2021/09/01 12:47:20;;;;;;;;;16.00;11.50;;;;;-147.91;100.00;58652.34;5020637;28;47611;-83
2021/09/01 12:49:48;;;;;;;;;14.00;13.75;;;;;-147.91;100.00;58652.34;5016592;28;45596;-83
2021/09/01 12:52:15;;;;;;;;;16.25;11.00;;;;;-147.91;100.00;58652.34;5011823;28;45715;-83
2021/09/01 12:54:41;;;;;;;;;13.00;12.00;;;;;-147.91;100.00;58652.34;5022930;28;46601;-83
2021/09/01 12:57:07;;;;;;;;;10.75;10.75;;;;;-147.91;100.00;58652.34;5005300;28;45644;-83
2021/09/01 12:59:35;;;;;;;;;16.75;12.50;;;;;-147.91;100.00;58652.34;5011144;28;50611;-86
2021/09/01 13:02:04;;;;;;;;;15.75;13.25;;;;;-147.91;100.00;58652.34;5010570;28;45741;-83
2021/09/01 13:04:30;;;;;;;;;9.50;8.75;;;;;-147.91;100.00;58652.34;5008470;28;45600;-83
2021/09/01 13:06:57;;;;;;;;;10.25;10.25;;;;;-147.91;100.00;58652.34;5010016;28;45810;-84
2021/09/01 13:09:23;;;;;;;;;16.75;12.75;;;;;-147.91;100.00;58652.34;5004487;28;45605;-84
2021/09/01 13:11:49;;;;;;;;;10.50;10.50;;;;;-147.91;100.00;58652.34;5006164;28;45794;-82
2021/09/01 13:14:14;;;;;;;;;14.50;12.25;;;;;-147.91;100.00;58652.34;5015362;28;46432;-83
2021/09/01 13:16:40;;;;;;;;;14.50;10.75;;;;;-147.91;100.00;58652.34;5009321;28;45571;-83
2021/09/01 13:19:05;;;;;;;;;13.00;12.25;;;;;-147.91;100.00;58652.34;5008427;28;45617;-83
2021/09/01 13:21:31;;;;;;;;;11.25;11.25;;;;;-147.91;100.00;58652.34;4994112;28;47181;-83
2021/09/01 13:23:56;;;;;;;;;13.50;11.25;;;;;-147.91;100.00;58652.34;5012154;28;45587;-83
2021/09/01 13:26:22;;;;;;;;;11.75;10.25;;;;;-147.91;100.00;58652.34;5010393;28;45556;-83
2021/09/01 13:28:47;;;;;;;;;11.50;10.00;;;;;-147.91;100.00;58652.34;4995667;28;45658;-83
2021/09/01 13:31:13;;;;;;;;;11.00;8.50;;;;;-147.91;100.00;58652.34;5016317;28;45883;-84
2021/09/01 13:33:38;;;;;;;;;13.50;11.00;;;;;-147.91;100.00;58652.34;5002178;28;45770;-83
2021/09/01 13:36:04;;;;;;;;;13.25;11.00;;;;;-147.91;100.00;58652.34;5005573;28;51427;-85
2021/09/01 13:38:29;;;;;;;;;10.25;9.25;;;;;-147.91;100.00;58652.34;5007803;28;45610;-84
2021/09/01 13:40:55;;;;;;;;;14.50;12.00;;;;;-147.91;100.00;58652.34;5011563;28;45650;-84